sensor_id;sensor_type;location;lat;lon;timestamp;pressure;altitude;pressure_sealevel;temperature;humidity
79077;BME280;68477;42.698;23.342;2024-01-15T00:01:16;94845.81;;;-4.29;89.32
79077;BME280;68477;42.698;23.342;2024-01-15T00:03:42;94843.00;;;-4.53;89.78
79077;BME280;68477;42.698;23.342;2024-01-15T00:06:08;94836.81;;;-4.22;89.57
79077;BME280;68477;42.698;23.342;2024-01-15T00:08:34;94843.16;;;-4.56;89.96
79077;BME280;68477;42.698;23.342;2024-01-15T00:10:59;94842.44;;;-4.58;91.06
79077;BME280;68477;42.698;23.342;2024-01-15T00:13:24;94834.00;;;-4.74;90.65
79077;BME280;68477;42.698;23.342;2024-01-15T00:15:50;94831.25;;;-4.57;90.17
79077;BME280;68477;42.698;23.342;2024-01-15T00:18:16;94839.50;;;-4.37;89.81
79077;BME280;68477;42.698;23.342;2024-01-15T00:20:41;94834.28;;;-4.36;89.44
79077;BME280;68477;42.698;23.342;2024-01-15T00:23:07;94840.25;;;-4.50;89.35
79077;BME280;68477;42.698;23.342;2024-01-15T00:25:32;94838.31;;;-4.46;89.40
79077;BME280;68477;42.698;23.342;2024-01-15T00:27:58;94836.81;;;-4.22;89.02
79077;BME280;68477;42.698;23.342;2024-01-15T00:30:23;94832.97;;;-4.43;89.19
79077;BME280;68477;42.698;23.342;2024-01-15T00:32:49;94830.94;;;-4.10;88.80
79077;BME280;68477;42.698;23.342;2024-01-15T00:35:15;94829.78;;;-4.18;88.58
79077;BME280;68477;42.698;23.342;2024-01-15T00:37:41;94839.50;;;-4.37;89.06
79077;BME280;68477;42.698;23.342;2024-01-15T00:40:07;94837.13;;;-4.41;89.59
79077;BME280;68477;42.698;23.342;2024-01-15T00:42:33;94843.25;;;-4.57;90.44
79077;BME280;68477;42.698;23.342;2024-01-15T00:44:59;94830.50;;;-4.45;90.49
79077;BME280;68477;42.698;23.342;2024-01-15T00:47:25;94831.25;;;-4.28;89.33
79077;BME280;68477;42.698;23.342;2024-01-15T00:49:50;94830.94;;;-4.10;88.81
79077;BME280;68477;42.698;23.342;2024-01-15T00:52:16;94827.31;;;-4.34;89.20
79077;BME280;68477;42.698;23.342;2024-01-15T00:54:42;94832.16;;;-4.29;89.50
79077;BME280;68477;42.698;23.342;2024-01-15T00:57:07;94830.19;;;-4.53;89.73
79077;BME280;68477;42.698;23.342;2024-01-15T00:59:32;94836.22;;;-4.40;89.66
79077;BME280;68477;42.698;23.342;2024-01-15T01:01:58;94831.88;;;-4.53;90.21
79077;BME280;68477;42.698;23.342;2024-01-15T01:04:23;94833.63;;;-4.54;90.13
79077;BME280;68477;42.698;23.342;2024-01-15T01:06:49;94827.03;;;-4.58;90.68
79077;BME280;68477;42.698;23.342;2024-01-15T01:09:14;94832.91;;;-4.70;90.15
79077;BME280;68477;42.698;23.342;2024-01-15T01:11:40;94829.06;;;-4.49;90.82
79077;BME280;68477;42.698;23.342;2024-01-15T01:14:06;94825.78;;;-3.95;87.95
79077;BME280;68477;42.698;23.342;2024-01-15T01:16:31;94826.84;;;-4.55;90.01
79077;BME280;68477;42.698;23.342;2024-01-15T01:19:04;94825.13;;;-4.83;91.30
79077;BME280;68477;42.698;23.342;2024-01-15T01:21:29;94824.66;;;-4.47;90.71
79077;BME280;68477;42.698;23.342;2024-01-15T01:23:55;94817.06;;;-4.48;90.46
79077;BME280;68477;42.698;23.342;2024-01-15T01:26:20;94822.34;;;-4.23;89.27
79077;BME280;68477;42.698;23.342;2024-01-15T01:28:46;94817.13;;;-4.35;89.79
79077;BME280;68477;42.698;23.342;2024-01-15T01:31:11;94816.03;;;-4.46;91.34
79077;BME280;68477;42.698;23.342;2024-01-15T01:33:38;94815.31;;;-4.62;90.50
79077;BME280;68477;42.698;23.342;2024-01-15T01:36:09;94818.44;;;-4.57;91.51
79077;BME280;68477;42.698;23.342;2024-01-15T01:38:37;94811.09;;;-4.77;91.03
79077;BME280;68477;42.698;23.342;2024-01-15T01:41:03;94797.44;;;-4.49;90.89
79077;BME280;68477;42.698;23.342;2024-01-15T01:43:29;94801.56;;;-4.61;90.72
79077;BME280;68477;42.698;23.342;2024-01-15T01:46:00;94801.09;;;-4.53;90.62
79077;BME280;68477;42.698;23.342;2024-01-15T01:48:26;94803.28;;;-5.04;92.05
79077;BME280;68477;42.698;23.342;2024-01-15T01:50:57;94803.94;;;-4.58;90.10
79077;BME280;68477;42.698;23.342;2024-01-15T01:53:23;94803.88;;;-4.71;89.97
79077;BME280;68477;42.698;23.342;2024-01-15T01:55:50;94806.25;;;-4.96;92.43
79077;BME280;68477;42.698;23.342;2024-01-15T01:58:16;94798.00;;;-4.73;91.13
79077;BME280;68477;42.698;23.342;2024-01-15T02:00:43;94791.13;;;-4.58;89.64
79077;BME280;68477;42.698;23.342;2024-01-15T02:03:09;94797.19;;;-4.59;90.20
79077;BME280;68477;42.698;23.342;2024-01-15T02:05:35;94785.34;;;-5.04;92.40
79077;BME280;68477;42.698;23.342;2024-01-15T02:08:01;94787.47;;;-4.82;90.98
79077;BME280;68477;42.698;23.342;2024-01-15T02:10:27;94790.47;;;-4.90;91.10
79077;BME280;68477;42.698;23.342;2024-01-15T02:12:52;94785.63;;;-4.80;90.93
79077;BME280;68477;42.698;23.342;2024-01-15T02:15:18;94782.88;;;-4.49;89.87
79077;BME280;68477;42.698;23.342;2024-01-15T02:17:59;94772.63;;;-5.20;92.84
79077;BME280;68477;42.698;23.342;2024-01-15T02:20:25;94768.06;;;-4.86;90.92
79077;BME280;68477;42.698;23.342;2024-01-15T02:22:51;94763.00;;;-5.02;91.98
79077;BME280;68477;42.698;23.342;2024-01-15T02:25:18;94758.06;;;-4.77;92.02
79077;BME280;68477;42.698;23.342;2024-01-15T02:27:44;94748.72;;;-5.06;91.53
79077;BME280;68477;42.698;23.342;2024-01-15T02:30:11;94723.38;;;-4.82;91.34
79077;BME280;68477;42.698;23.342;2024-01-15T02:32:38;94723.09;;;-4.36;88.98
79077;BME280;68477;42.698;23.342;2024-01-15T02:35:04;94717.78;;;-4.89;90.69
79077;BME280;68477;42.698;23.342;2024-01-15T02:37:29;94720.00;;;-4.97;91.28
79077;BME280;68477;42.698;23.342;2024-01-15T02:39:55;94725.63;;;-5.35;92.90
79077;BME280;68477;42.698;23.342;2024-01-15T02:42:20;94727.59;;;-4.95;91.95
79077;BME280;68477;42.698;23.342;2024-01-15T02:44:46;94726.38;;;-5.04;90.31
79077;BME280;68477;42.698;23.342;2024-01-15T02:47:11;94720.50;;;-4.78;90.60
79077;BME280;68477;42.698;23.342;2024-01-15T02:49:37;94727.94;;;-4.73;90.48
79077;BME280;68477;42.698;23.342;2024-01-15T02:52:02;94723.72;;;-4.74;89.86
79077;BME280;68477;42.698;23.342;2024-01-15T02:54:28;94724.47;;;-4.86;90.62
79077;BME280;68477;42.698;23.342;2024-01-15T02:56:54;94725.97;;;-4.55;89.15
79077;BME280;68477;42.698;23.342;2024-01-15T02:59:19;94726.94;;;-4.85;89.82
79077;BME280;68477;42.698;23.342;2024-01-15T03:01:44;94723.88;;;-4.77;88.73
79077;BME280;68477;42.698;23.342;2024-01-15T03:04:10;94716.16;;;-4.49;87.52
79077;BME280;68477;42.698;23.342;2024-01-15T03:06:35;94724.16;;;-4.68;88.83
79077;BME280;68477;42.698;23.342;2024-01-15T03:09:01;94726.38;;;-5.04;91.45
79077;BME280;68477;42.698;23.342;2024-01-15T03:11:26;94723.53;;;-5.00;90.07
79077;BME280;68477;42.698;23.342;2024-01-15T03:13:52;94726.56;;;-4.93;89.91
79077;BME280;68477;42.698;23.342;2024-01-15T03:16:17;94717.22;;;-5.22;90.95
79077;BME280;68477;42.698;23.342;2024-01-15T03:18:45;94710.91;;;-5.03;90.66
79077;BME280;68477;42.698;23.342;2024-01-15T03:21:10;94712.00;;;-4.78;89.50
79077;BME280;68477;42.698;23.342;2024-01-15T03:23:36;94712.75;;;-4.90;89.37
79077;BME280;68477;42.698;23.342;2024-01-15T03:26:01;94712.28;;;-5.11;90.67
79077;BME280;68477;42.698;23.342;2024-01-15T03:28:27;94701.09;;;-4.82;88.94
79077;BME280;68477;42.698;23.342;2024-01-15T03:30:52;94701.81;;;-4.80;88.10
79077;BME280;68477;42.698;23.342;2024-01-15T03:33:18;94698.00;;;-5.01;89.69
79077;BME280;68477;42.698;23.342;2024-01-15T03:35:43;94700.28;;;-4.82;87.54
79077;BME280;68477;42.698;23.342;2024-01-15T03:38:09;94703.94;;;-4.72;87.16
79077;BME280;68477;42.698;23.342;2024-01-15T03:40:34;94697.59;;;-4.66;86.01
79077;BME280;68477;42.698;23.342;2024-01-15T03:42:59;94697.59;;;-4.66;85.98
79077;BME280;68477;42.698;23.342;2024-01-15T03:45:25;94702.50;;;-4.22;85.52
79077;BME280;68477;42.698;23.342;2024-01-15T03:47:51;94692.53;;;-4.54;86.46
79077;BME280;68477;42.698;23.342;2024-01-15T03:50:17;94695.09;;;-4.54;86.46
79077;BME280;68477;42.698;23.342;2024-01-15T03:52:42;94701.44;;;-4.59;87.26
79077;BME280;68477;42.698;23.342;2024-01-15T03:55:08;94703.91;;;-4.58;87.36
79077;BME280;68477;42.698;23.342;2024-01-15T03:57:33;94698.59;;;-4.28;86.26
79077;BME280;68477;42.698;23.342;2024-01-15T03:59:59;94693.47;;;-3.88;86.32
79077;BME280;68477;42.698;23.342;2024-01-15T04:02:24;94695.47;;;-4.19;85.48
79077;BME280;68477;42.698;23.342;2024-01-15T04:04:50;94693.16;;;-4.50;87.79
79077;BME280;68477;42.698;23.342;2024-01-15T04:07:15;94676.41;;;-4.97;89.50
79077;BME280;68477;42.698;23.342;2024-01-15T04:09:40;94676.88;;;-5.05;90.52
79077;BME280;68477;42.698;23.342;2024-01-15T04:12:06;94679.75;;;-4.14;85.41
79077;BME280;68477;42.698;23.342;2024-01-15T04:14:32;94677.22;;;-4.55;86.10
79077;BME280;68477;42.698;23.342;2024-01-15T04:16:57;94672.75;;;-4.66;87.33
79077;BME280;68477;42.698;23.342;2024-01-15T04:19:23;94677.63;;;-4.76;87.56
79077;BME280;68477;42.698;23.342;2024-01-15T04:21:48;94672.16;;;-4.84;88.03
79077;BME280;68477;42.698;23.342;2024-01-15T04:24:13;94681.44;;;-4.54;87.41
79077;BME280;68477;42.698;23.342;2024-01-15T04:26:39;94674.59;;;-4.68;87.92
79077;BME280;68477;42.698;23.342;2024-01-15T04:29:05;94674.66;;;-4.55;86.56
79077;BME280;68477;42.698;23.342;2024-01-15T04:31:30;94684.91;;;-5.11;88.67
79077;BME280;68477;42.698;23.342;2024-01-15T04:33:56;94682.97;;;-4.79;87.41
79077;BME280;68477;42.698;23.342;2024-01-15T04:36:21;94675.00;;;-4.74;88.18
79077;BME280;68477;42.698;23.342;2024-01-15T04:38:47;94677.94;;;-4.80;87.48
79077;BME280;68477;42.698;23.342;2024-01-15T04:41:13;94676.97;;;-5.06;88.64
79077;BME280;68477;42.698;23.342;2024-01-15T04:43:39;94672.81;;;-4.94;88.70
79077;BME280;68477;42.698;23.342;2024-01-15T04:46:07;94671.19;;;-5.24;89.50
79077;BME280;68477;42.698;23.342;2024-01-15T04:48:33;94666.38;;;-4.87;89.22
79077;BME280;68477;42.698;23.342;2024-01-15T04:50:59;94664.03;;;-4.90;88.13
79077;BME280;68477;42.698;23.342;2024-01-15T04:53:25;94665.50;;;-4.86;88.45
79077;BME280;68477;42.698;23.342;2024-01-15T04:55:50;94671.44;;;-5.00;87.91
79077;BME280;68477;42.698;23.342;2024-01-15T04:58:16;94664.13;;;-4.92;88.27
79077;BME280;68477;42.698;23.342;2024-01-15T05:00:41;94659.03;;;-5.06;89.56
79077;BME280;68477;42.698;23.342;2024-01-15T05:03:07;94649.00;;;-4.82;88.60
79077;BME280;68477;42.698;23.342;2024-01-15T05:05:32;94659.81;;;-4.91;89.69
79077;BME280;68477;42.698;23.342;2024-01-15T05:07:58;94652.78;;;-5.45;90.34
79077;BME280;68477;42.698;23.342;2024-01-15T05:10:23;94656.66;;;-5.09;89.98
79077;BME280;68477;42.698;23.342;2024-01-15T05:12:49;94651.91;;;-4.88;90.02
79077;BME280;68477;42.698;23.342;2024-01-15T05:15:14;94647.88;;;-5.19;90.04
79077;BME280;68477;42.698;23.342;2024-01-15T05:17:40;94642.25;;;-5.12;90.97
79077;BME280;68477;42.698;23.342;2024-01-15T05:20:06;94644.53;;;-4.93;89.96
79077;BME280;68477;42.698;23.342;2024-01-15T05:22:32;94647.56;;;-5.01;90.47
79077;BME280;68477;42.698;23.342;2024-01-15T05:24:58;94635.69;;;-5.44;92.41
79077;BME280;68477;42.698;23.342;2024-01-15T05:27:23;94646.75;;;-5.44;91.72
79077;BME280;68477;42.698;23.342;2024-01-15T05:29:49;94660.03;;;-5.37;91.37
79077;BME280;68477;42.698;23.342;2024-01-15T05:32:14;94659.78;;;-4.77;89.22
79077;BME280;68477;42.698;23.342;2024-01-15T05:34:40;94656.34;;;-5.05;88.68
79077;BME280;68477;42.698;23.342;2024-01-15T05:37:05;94632.03;;;-5.26;90.54
79077;BME280;68477;42.698;23.342;2024-01-15T05:39:31;94630.78;;;-4.92;89.62
79077;BME280;68477;42.698;23.342;2024-01-15T05:41:58;94632.13;;;-5.28;90.22
79077;BME280;68477;42.698;23.342;2024-01-15T05:44:24;94641.72;;;-4.61;87.79
79077;BME280;68477;42.698;23.342;2024-01-15T05:46:50;94644.69;;;-4.82;88.09
79077;BME280;68477;42.698;23.342;2024-01-15T05:49:15;94636.38;;;-4.85;88.54
79077;BME280;68477;42.698;23.342;2024-01-15T05:51:41;94622.63;;;-4.84;88.20
79077;BME280;68477;42.698;23.342;2024-01-15T05:54:06;94612.75;;;-4.90;88.74
79077;BME280;68477;42.698;23.342;2024-01-15T05:56:32;94616.69;;;-4.58;86.99
79077;BME280;68477;42.698;23.342;2024-01-15T05:58:57;94609.81;;;-4.57;88.49
79077;BME280;68477;42.698;23.342;2024-01-15T06:01:23;94609.16;;;-4.88;89.57
79077;BME280;68477;42.698;23.342;2024-01-15T06:03:48;94635.94;;;-4.38;87.32
79077;BME280;68477;42.698;23.342;2024-01-15T06:06:14;94633.88;;;-4.33;87.10
79077;BME280;68477;42.698;23.342;2024-01-15T06:08:39;94641.84;;;-4.50;87.64
79077;BME280;68477;42.698;23.342;2024-01-15T06:11:06;94639.56;;;-4.55;87.41
79077;BME280;68477;42.698;23.342;2024-01-15T06:13:32;94629.81;;;-4.62;89.49
79077;BME280;68477;42.698;23.342;2024-01-15T06:15:57;94624.84;;;-4.65;88.94
79077;BME280;68477;42.698;23.342;2024-01-15T06:18:23;94623.09;;;-4.65;90.08
79077;BME280;68477;42.698;23.342;2024-01-15T06:20:49;94625.28;;;-4.19;88.32
79077;BME280;68477;42.698;23.342;2024-01-15T06:23:14;94616.84;;;-4.34;89.61
79077;BME280;68477;42.698;23.342;2024-01-15T06:25:40;94621.16;;;-3.82;87.36
79077;BME280;68477;42.698;23.342;2024-01-15T06:28:05;94612.81;;;-3.86;88.69
79077;BME280;68477;42.698;23.342;2024-01-15T06:30:31;94604.00;;;-3.69;85.84
79077;BME280;68477;42.698;23.342;2024-01-15T06:32:56;94618.31;;;-3.39;85.41
79077;BME280;68477;42.698;23.342;2024-01-15T06:35:22;94616.25;;;-3.60;86.79
79077;BME280;68477;42.698;23.342;2024-01-15T06:37:47;94627.72;;;-3.14;85.22
79077;BME280;68477;42.698;23.342;2024-01-15T06:40:13;94624.84;;;-3.23;84.66
79077;BME280;68477;42.698;23.342;2024-01-15T06:42:40;94624.44;;;-3.29;86.12
79077;BME280;68477;42.698;23.342;2024-01-15T06:45:06;94621.22;;;-3.07;85.33
79077;BME280;68477;42.698;23.342;2024-01-15T06:47:32;94612.22;;;-2.89;82.92
79077;BME280;68477;42.698;23.342;2024-01-15T06:49:58;94612.06;;;-2.75;80.99
79077;BME280;68477;42.698;23.342;2024-01-15T06:52:24;94621.41;;;-2.98;83.57
79077;BME280;68477;42.698;23.342;2024-01-15T06:54:50;94620.63;;;-2.74;81.17
79077;BME280;68477;42.698;23.342;2024-01-15T06:57:16;94629.41;;;-2.53;81.92
79077;BME280;68477;42.698;23.342;2024-01-15T06:59:41;94633.72;;;-2.53;81.15
79077;BME280;68477;42.698;23.342;2024-01-15T07:02:07;94645.44;;;-2.49;80.75
79077;BME280;68477;42.698;23.342;2024-01-15T07:04:32;94642.22;;;-2.40;80.58
79077;BME280;68477;42.698;23.342;2024-01-15T07:06:59;94640.25;;;-2.60;81.45
79077;BME280;68477;42.698;23.342;2024-01-15T07:09:25;94642.22;;;-2.40;80.83
79077;BME280;68477;42.698;23.342;2024-01-15T07:11:51;94630.22;;;-2.52;81.42
79077;BME280;68477;42.698;23.342;2024-01-15T07:14:17;94634.25;;;-2.48;82.82
79077;BME280;68477;42.698;23.342;2024-01-15T07:16:42;94623.75;;;-2.82;84.32
79077;BME280;68477;42.698;23.342;2024-01-15T07:19:08;94632.13;;;-2.67;83.01
79077;BME280;68477;42.698;23.342;2024-01-15T07:21:33;94640.91;;;-2.46;81.60
79077;BME280;68477;42.698;23.342;2024-01-15T07:23:59;94638.56;;;-2.49;81.78
79077;BME280;68477;42.698;23.342;2024-01-15T07:26:25;94631.38;;;-2.56;82.30
79077;BME280;68477;42.698;23.342;2024-01-15T07:28:51;94641.41;;;-2.41;81.38
79077;BME280;68477;42.698;23.342;2024-01-15T07:31:17;94643.84;;;-2.15;80.88
79077;BME280;68477;42.698;23.342;2024-01-15T07:33:43;94606.00;;;-2.02;80.91
79077;BME280;68477;42.698;23.342;2024-01-15T07:36:08;94612.81;;;-2.25;80.24
79077;BME280;68477;42.698;23.342;2024-01-15T07:38:34;94616.72;;;-2.08;80.80
79077;BME280;68477;42.698;23.342;2024-01-15T07:40:59;94630.97;;;-2.39;81.35
79077;BME280;68477;42.698;23.342;2024-01-15T07:43:25;94626.25;;;-1.97;80.15
79077;BME280;68477;42.698;23.342;2024-01-15T07:45:53;94620.00;;;-2.06;80.33
79077;BME280;68477;42.698;23.342;2024-01-15T07:48:18;94618.59;;;-2.10;80.81
79077;BME280;68477;42.698;23.342;2024-01-15T07:50:44;94634.00;;;-2.21;82.67
79077;BME280;68477;42.698;23.342;2024-01-15T07:53:09;94636.84;;;-1.78;81.18
79077;BME280;68477;42.698;23.342;2024-01-15T07:55:35;94644.38;;;-1.64;80.09
79077;BME280;68477;42.698;23.342;2024-01-15T07:58:01;94630.41;;;-1.72;80.77
79077;BME280;68477;42.698;23.342;2024-01-15T08:00:27;94631.44;;;-1.86;80.02
79077;BME280;68477;42.698;23.342;2024-01-15T08:02:53;94601.16;;;-2.07;80.08
79077;BME280;68477;42.698;23.342;2024-01-15T08:05:19;94586.16;;;-1.66;79.14
79077;BME280;68477;42.698;23.342;2024-01-15T08:07:46;94601.28;;;-1.51;78.88
79077;BME280;68477;42.698;23.342;2024-01-15T08:10:12;94621.47;;;-1.11;77.48
79077;BME280;68477;42.698;23.342;2024-01-15T08:12:39;94622.50;;;-1.02;77.34
79077;BME280;68477;42.698;23.342;2024-01-15T08:15:05;94623.00;;;-0.97;76.96
79077;BME280;68477;42.698;23.342;2024-01-15T08:17:31;94624.06;;;-1.33;78.54
79077;BME280;68477;42.698;23.342;2024-01-15T08:19:57;94628.81;;;-1.62;79.52
79077;BME280;68477;42.698;23.342;2024-01-15T08:22:23;94614.03;;;-1.60;79.82
79077;BME280;68477;42.698;23.342;2024-01-15T08:24:48;94628.13;;;-1.42;78.47
79077;BME280;68477;42.698;23.342;2024-01-15T08:27:14;94631.19;;;-0.92;76.60
79077;BME280;68477;42.698;23.342;2024-01-15T08:29:39;94628.41;;;-1.11;77.92
79077;BME280;68477;42.698;23.342;2024-01-15T08:32:05;94625.97;;;-0.59;76.49
79077;BME280;68477;42.698;23.342;2024-01-15T08:34:31;94621.41;;;-0.44;76.05
79077;BME280;68477;42.698;23.342;2024-01-15T08:36:56;94611.06;;;-0.12;74.42
79077;BME280;68477;42.698;23.342;2024-01-15T08:39:22;94600.25;;;0.15;73.40
79077;BME280;68477;42.698;23.342;2024-01-15T08:41:47;94599.72;;;0.63;73.53
79077;BME280;68477;42.698;23.342;2024-01-15T08:44:13;94600.13;;;0.38;71.67
79077;BME280;68477;42.698;23.342;2024-01-15T08:46:40;94588.50;;;1.14;71.34
79077;BME280;68477;42.698;23.342;2024-01-15T08:49:05;94585.94;;;1.14;69.07
79077;BME280;68477;42.698;23.342;2024-01-15T08:51:31;94589.84;;;0.68;71.32
79077;BME280;68477;42.698;23.342;2024-01-15T08:53:56;94591.22;;;0.51;72.13
79077;BME280;68477;42.698;23.342;2024-01-15T08:56:23;94596.22;;;1.44;68.65
79077;BME280;68477;42.698;23.342;2024-01-15T08:58:48;94585.44;;;1.39;67.87
79077;BME280;68477;42.698;23.342;2024-01-15T09:01:14;94573.75;;;2.03;66.33
79077;BME280;68477;42.698;23.342;2024-01-15T09:03:40;94564.75;;;1.49;67.12
79077;BME280;68477;42.698;23.342;2024-01-15T09:06:06;94552.66;;;1.19;67.63
79077;BME280;68477;42.698;23.342;2024-01-15T09:08:32;94562.13;;;1.39;65.65
79077;BME280;68477;42.698;23.342;2024-01-15T09:10:58;94557.09;;;1.38;66.13
79077;BME280;68477;42.698;23.342;2024-01-15T09:13:23;94540.22;;;0.63;69.30
79077;BME280;68477;42.698;23.342;2024-01-15T09:15:49;94532.94;;;0.87;68.43
79077;BME280;68477;42.698;23.342;2024-01-15T09:18:14;94524.47;;;1.16;66.53
79077;BME280;68477;42.698;23.342;2024-01-15T09:20:40;94513.47;;;1.72;65.03
79077;BME280;68477;42.698;23.342;2024-01-15T09:23:05;94506.91;;;1.49;67.48
79077;BME280;68477;42.698;23.342;2024-01-15T09:25:31;94522.16;;;1.90;66.71
79077;BME280;68477;42.698;23.342;2024-01-15T09:27:57;94506.50;;;1.53;65.84
79077;BME280;68477;42.698;23.342;2024-01-15T09:30:25;94503.09;;;1.43;66.96
79077;BME280;68477;42.698;23.342;2024-01-15T09:32:50;94509.03;;;1.05;68.30
79077;BME280;68477;42.698;23.342;2024-01-15T09:35:16;94511.75;;;1.03;69.31
79077;BME280;68477;42.698;23.342;2024-01-15T09:37:41;94497.56;;;0.98;70.36
79077;BME280;68477;42.698;23.342;2024-01-15T09:40:14;94491.91;;;0.73;70.85
79077;BME280;68477;42.698;23.342;2024-01-15T09:42:42;94485.00;;;0.43;72.53
79077;BME280;68477;42.698;23.342;2024-01-15T09:45:09;94476.31;;;0.94;69.72
79077;BME280;68477;42.698;23.342;2024-01-15T09:47:36;94480.66;;;0.94;69.59
79077;BME280;68477;42.698;23.342;2024-01-15T09:50:03;94474.19;;;0.59;70.87
79077;BME280;68477;42.698;23.342;2024-01-15T09:52:30;94465.44;;;0.20;72.05
79077;BME280;68477;42.698;23.342;2024-01-15T09:54:57;94453.44;;;0.19;73.10
79077;BME280;68477;42.698;23.342;2024-01-15T09:57:23;94451.03;;;-0.04;73.92
79077;BME280;68477;42.698;23.342;2024-01-15T09:59:50;94432.13;;;0.26;72.20
79077;BME280;68477;42.698;23.342;2024-01-15T10:02:17;94432.25;;;0.25;73.14
79077;BME280;68477;42.698;23.342;2024-01-15T10:04:44;94449.53;;;0.65;71.68
79077;BME280;68477;42.698;23.342;2024-01-15T10:07:14;94459.78;;;0.76;71.89
79077;BME280;68477;42.698;23.342;2024-01-15T10:09:40;94448.44;;;0.67;72.31
79077;BME280;68477;42.698;23.342;2024-01-15T10:12:06;94431.44;;;0.24;73.41
79077;BME280;68477;42.698;23.342;2024-01-15T10:14:32;94431.22;;;0.37;73.03
79077;BME280;68477;42.698;23.342;2024-01-15T10:16:58;94423.88;;;0.42;72.59
79077;BME280;68477;42.698;23.342;2024-01-15T10:19:24;94421.03;;;0.55;71.00
79077;BME280;68477;42.698;23.342;2024-01-15T10:21:49;94412.13;;;0.88;69.31
79077;BME280;68477;42.698;23.342;2024-01-15T10:24:17;94411.16;;;1.47;68.38
79077;BME280;68477;42.698;23.342;2024-01-15T10:26:42;94405.28;;;1.84;67.48
79077;BME280;68477;42.698;23.342;2024-01-15T10:29:08;94407.38;;;2.08;66.45
79077;BME280;68477;42.698;23.342;2024-01-15T10:31:33;94388.91;;;1.73;67.36
79077;BME280;68477;42.698;23.342;2024-01-15T10:34:12;94387.22;;;1.26;69.42
79077;BME280;68477;42.698;23.342;2024-01-15T10:36:39;94398.50;;;1.34;67.89
79077;BME280;68477;42.698;23.342;2024-01-15T10:39:06;94391.63;;;1.82;67.61
79077;BME280;68477;42.698;23.342;2024-01-15T10:41:32;94382.19;;;1.81;68.30
79077;BME280;68477;42.698;23.342;2024-01-15T10:43:58;94378.13;;;1.78;69.54
79077;BME280;68477;42.698;23.342;2024-01-15T10:46:24;94376.03;;;2.28;66.79
79077;BME280;68477;42.698;23.342;2024-01-15T10:48:51;94387.13;;;2.48;65.24
79077;BME280;68477;42.698;23.342;2024-01-15T10:51:17;94382.59;;;2.78;65.08
79077;BME280;68477;42.698;23.342;2024-01-15T10:53:43;94367.69;;;2.80;64.72
79077;BME280;68477;42.698;23.342;2024-01-15T10:56:11;94366.69;;;2.08;65.79
79077;BME280;68477;42.698;23.342;2024-01-15T10:58:39;94362.09;;;2.29;67.44
79077;BME280;68477;42.698;23.342;2024-01-15T11:01:05;94353.94;;;3.05;62.96
79077;BME280;68477;42.698;23.342;2024-01-15T11:03:31;94355.09;;;3.20;60.98
79077;BME280;68477;42.698;23.342;2024-01-15T11:05:59;94356.03;;;2.66;62.44
79077;BME280;68477;42.698;23.342;2024-01-15T11:08:25;94347.72;;;2.35;63.76
79077;BME280;68477;42.698;23.342;2024-01-15T11:10:51;94350.69;;;3.21;61.35
79077;BME280;68477;42.698;23.342;2024-01-15T11:16:00;94331.94;;;2.91;60.33
79077;BME280;68477;42.698;23.342;2024-01-15T11:18:35;94326.34;;;3.22;59.69
79077;BME280;68477;42.698;23.342;2024-01-15T11:23:45;94325.53;;;3.65;58.19
79077;BME280;68477;42.698;23.342;2024-01-15T11:29:06;94318.34;;;3.93;56.95
79077;BME280;68477;42.698;23.342;2024-01-15T11:34:05;94310.88;;;3.90;58.91
79077;BME280;68477;42.698;23.342;2024-01-15T11:41:59;94304.88;;;4.32;56.57
79077;BME280;68477;42.698;23.342;2024-01-15T11:44:26;94300.84;;;4.03;57.86
79077;BME280;68477;42.698;23.342;2024-01-15T11:47:02;94282.97;;;4.00;56.13
79077;BME280;68477;42.698;23.342;2024-01-15T11:52:22;94303.81;;;4.17;58.21
79077;BME280;68477;42.698;23.342;2024-01-15T11:55:00;94296.22;;;3.55;59.42
79077;BME280;68477;42.698;23.342;2024-01-15T11:57:52;94283.94;;;3.65;58.92
79077;BME280;68477;42.698;23.342;2024-01-15T12:00:20;94281.53;;;3.46;57.85
79077;BME280;68477;42.698;23.342;2024-01-15T12:02:47;94275.09;;;3.58;57.53
79077;BME280;68477;42.698;23.342;2024-01-15T12:05:14;94278.34;;;3.86;58.16
79077;BME280;68477;42.698;23.342;2024-01-15T12:07:44;94279.78;;;3.80;60.18
79077;BME280;68477;42.698;23.342;2024-01-15T12:10:10;94278.13;;;3.79;58.99
79077;BME280;68477;42.698;23.342;2024-01-15T12:12:58;94273.72;;;3.46;60.97
79077;BME280;68477;42.698;23.342;2024-01-15T12:15:26;94282.44;;;3.37;61.08
79077;BME280;68477;42.698;23.342;2024-01-15T12:17:52;94276.13;;;3.65;61.02
79077;BME280;68477;42.698;23.342;2024-01-15T12:20:18;94252.63;;;3.49;61.30
79077;BME280;68477;42.698;23.342;2024-01-15T12:22:44;94261.53;;;3.72;61.81
79077;BME280;68477;42.698;23.342;2024-01-15T12:25:10;94243.34;;;3.46;61.69
79077;BME280;68477;42.698;23.342;2024-01-15T12:27:36;94262.47;;;3.63;62.85
79077;BME280;68477;42.698;23.342;2024-01-15T12:30:02;94259.72;;;3.73;63.63
79077;BME280;68477;42.698;23.342;2024-01-15T12:32:28;94244.66;;;3.85;61.13
79077;BME280;68477;42.698;23.342;2024-01-15T12:34:54;94252.50;;;3.59;62.32
79077;BME280;68477;42.698;23.342;2024-01-15T12:37:20;94244.53;;;3.94;60.44
79077;BME280;68477;42.698;23.342;2024-01-15T12:39:47;94232.31;;;3.78;60.17
79077;BME280;68477;42.698;23.342;2024-01-15T12:42:16;94242.75;;;3.95;59.49
79077;BME280;68477;42.698;23.342;2024-01-15T12:44:44;94243.69;;;4.20;58.61
79077;BME280;68477;42.698;23.342;2024-01-15T12:47:10;94231.31;;;4.22;58.29
79077;BME280;68477;42.698;23.342;2024-01-15T12:49:38;94223.84;;;3.76;60.59
79077;BME280;68477;42.698;23.342;2024-01-15T12:52:08;94224.66;;;3.77;61.20
79077;BME280;68477;42.698;23.342;2024-01-15T12:54:35;94230.72;;;3.86;61.26
79077;BME280;68477;42.698;23.342;2024-01-15T12:57:00;94227.47;;;3.92;61.32
79077;BME280;68477;42.698;23.342;2024-01-15T12:59:26;94228.31;;;4.00;59.79
79077;BME280;68477;42.698;23.342;2024-01-15T13:01:51;94216.31;;;3.65;61.42
79077;BME280;68477;42.698;23.342;2024-01-15T13:04:24;94214.66;;;3.56;62.74
79077;BME280;68477;42.698;23.342;2024-01-15T13:06:50;94207.50;;;3.58;61.93